sensor_id;sensor_type;location;lat;lon;timestamp;temperature;humidity
802;DHT22;383;48.766;9.270;2022-11-15T00:00:10;9.60;98.60
802;DHT22;383;48.766;9.270;2022-11-15T00:02:37;9.60;98.60
802;DHT22;383;48.766;9.270;2022-11-15T00:05:06;9.60;98.80
802;DHT22;383;48.766;9.270;2022-11-15T00:07:32;9.60;98.60
802;DHT22;383;48.766;9.270;2022-11-15T00:09:59;9.60;98.90
802;DHT22;383;48.766;9.270;2022-11-15T00:12:27;9.60;98.90
802;DHT22;383;48.766;9.270;2022-11-15T00:14:53;9.60;98.80
802;DHT22;383;48.766;9.270;2022-11-15T00:17:21;9.60;98.70
802;DHT22;383;48.766;9.270;2022-11-15T00:19:48;9.60;98.60
802;DHT22;383;48.766;9.270;2022-11-15T00:22:15;9.60;98.80
802;DHT22;383;48.766;9.270;2022-11-15T00:24:42;9.80;98.10
802;DHT22;383;48.766;9.270;2022-11-15T00:27:09;9.70;98.10
802;DHT22;383;48.766;9.270;2022-11-15T00:29:36;9.70;98.00
802;DHT22;383;48.766;9.270;2022-11-15T00:32:04;9.70;98.10
802;DHT22;383;48.766;9.270;2022-11-15T00:34:32;9.60;98.40
802;DHT22;383;48.766;9.270;2022-11-15T00:36:59;9.70;98.30
802;DHT22;383;48.766;9.270;2022-11-15T00:39:26;9.80;97.70
802;DHT22;383;48.766;9.270;2022-11-15T00:41:52;9.70;98.00
802;DHT22;383;48.766;9.270;2022-11-15T00:44:19;9.70;98.00
802;DHT22;383;48.766;9.270;2022-11-15T00:46:46;9.60;98.50
802;DHT22;383;48.766;9.270;2022-11-15T00:49:13;9.50;98.80
802;DHT22;383;48.766;9.270;2022-11-15T00:51:41;9.50;98.70
802;DHT22;383;48.766;9.270;2022-11-15T00:54:08;9.50;98.70
802;DHT22;383;48.766;9.270;2022-11-15T00:56:34;9.60;98.20
802;DHT22;383;48.766;9.270;2022-11-15T00:59:01;9.50;98.00
802;DHT22;383;48.766;9.270;2022-11-15T01:01:28;9.50;98.30
802;DHT22;383;48.766;9.270;2022-11-15T01:03:55;9.40;98.50
802;DHT22;383;48.766;9.270;2022-11-15T01:06:24;9.40;98.40
802;DHT22;383;48.766;9.270;2022-11-15T01:08:53;9.40;98.20
802;DHT22;383;48.766;9.270;2022-11-15T01:11:19;9.30;98.50
802;DHT22;383;48.766;9.270;2022-11-15T01:13:46;9.30;98.50
802;DHT22;383;48.766;9.270;2022-11-15T01:16:15;9.30;98.10
802;DHT22;383;48.766;9.270;2022-11-15T01:18:44;9.20;98.30
802;DHT22;383;48.766;9.270;2022-11-15T01:21:13;9.20;98.50
802;DHT22;383;48.766;9.270;2022-11-15T01:23:40;9.20;98.40
802;DHT22;383;48.766;9.270;2022-11-15T01:26:11;9.20;97.80
802;DHT22;383;48.766;9.270;2022-11-15T01:28:39;9.20;97.90
802;DHT22;383;48.766;9.270;2022-11-15T01:31:14;9.10;98.00
802;DHT22;383;48.766;9.270;2022-11-15T01:33:41;9.00;98.30
802;DHT22;383;48.766;9.270;2022-11-15T01:36:11;8.90;98.40
802;DHT22;383;48.766;9.270;2022-11-15T01:38:38;8.90;98.60
802;DHT22;383;48.766;9.270;2022-11-15T01:41:05;8.70;98.40
802;DHT22;383;48.766;9.270;2022-11-15T01:43:35;8.60;98.90
802;DHT22;383;48.766;9.270;2022-11-15T01:46:06;8.70;98.90
802;DHT22;383;48.766;9.270;2022-11-15T01:48:34;8.60;98.90
802;DHT22;383;48.766;9.270;2022-11-15T01:51:07;8.50;99.20
802;DHT22;383;48.766;9.270;2022-11-15T01:53:38;8.40;99.50
802;DHT22;383;48.766;9.270;2022-11-15T01:56:10;8.30;99.60
802;DHT22;383;48.766;9.270;2022-11-15T01:58:43;8.30;99.50
802;DHT22;383;48.766;9.270;2022-11-15T02:01:12;8.30;99.50
802;DHT22;383;48.766;9.270;2022-11-15T02:03:43;8.20;99.20
802;DHT22;383;48.766;9.270;2022-11-15T02:06:12;8.20;99.20
802;DHT22;383;48.766;9.270;2022-11-15T02:08:38;8.10;99.20
802;DHT22;383;48.766;9.270;2022-11-15T02:11:08;8.10;99.60
802;DHT22;383;48.766;9.270;2022-11-15T02:13:35;8.10;99.30
802;DHT22;383;48.766;9.270;2022-11-15T02:16:09;8.10;99.30
802;DHT22;383;48.766;9.270;2022-11-15T02:18:41;8.00;99.60
802;DHT22;383;48.766;9.270;2022-11-15T02:21:17;8.00;99.80
802;DHT22;383;48.766;9.270;2022-11-15T02:24:11;8.00;99.30
802;DHT22;383;48.766;9.270;2022-11-15T02:27:14;8.00;99.30
802;DHT22;383;48.766;9.270;2022-11-15T02:30:02;7.90;99.60
802;DHT22;383;48.766;9.270;2022-11-15T02:32:36;7.90;99.80
802;DHT22;383;48.766;9.270;2022-11-15T02:35:11;7.90;99.90
802;DHT22;383;48.766;9.270;2022-11-15T02:37:46;7.90;99.90
802;DHT22;383;48.766;9.270;2022-11-15T02:40:26;8.00;99.70
802;DHT22;383;48.766;9.270;2022-11-15T02:42:56;8.00;99.50
802;DHT22;383;48.766;9.270;2022-11-15T02:45:47;8.00;99.40
802;DHT22;383;48.766;9.270;2022-11-15T02:48:18;7.90;99.60
802;DHT22;383;48.766;9.270;2022-11-15T02:50:47;7.80;99.90
802;DHT22;383;48.766;9.270;2022-11-15T02:53:14;7.70;99.90
802;DHT22;383;48.766;9.270;2022-11-15T02:55:44;7.80;99.90
802;DHT22;383;48.766;9.270;2022-11-15T02:58:33;7.80;99.90
802;DHT22;383;48.766;9.270;2022-11-15T03:01:07;7.80;99.90
802;DHT22;383;48.766;9.270;2022-11-15T03:03:47;7.80;99.90
802;DHT22;383;48.766;9.270;2022-11-15T03:06:22;7.80;99.90
802;DHT22;383;48.766;9.270;2022-11-15T03:09:01;7.70;99.90
802;DHT22;383;48.766;9.270;2022-11-15T03:11:29;7.70;99.90
802;DHT22;383;48.766;9.270;2022-11-15T03:14:05;7.80;99.90
802;DHT22;383;48.766;9.270;2022-11-15T03:16:36;7.80;99.90
802;DHT22;383;48.766;9.270;2022-11-15T03:19:13;7.80;99.90
802;DHT22;383;48.766;9.270;2022-11-15T03:21:40;7.80;99.90
802;DHT22;383;48.766;9.270;2022-11-15T03:24:08;7.70;99.90
802;DHT22;383;48.766;9.270;2022-11-15T03:26:39;7.60;99.90
802;DHT22;383;48.766;9.270;2022-11-15T03:29:11;7.60;99.90
802;DHT22;383;48.766;9.270;2022-11-15T03:31:44;7.60;99.90
802;DHT22;383;48.766;9.270;2022-11-15T03:34:21;7.60;99.90
802;DHT22;383;48.766;9.270;2022-11-15T03:36:50;7.60;99.90
802;DHT22;383;48.766;9.270;2022-11-15T03:39:18;7.60;99.90
802;DHT22;383;48.766;9.270;2022-11-15T03:41:49;7.70;99.90
802;DHT22;383;48.766;9.270;2022-11-15T03:44:23;7.70;99.90
802;DHT22;383;48.766;9.270;2022-11-15T03:46:57;7.70;99.90
802;DHT22;383;48.766;9.270;2022-11-15T03:49:29;7.70;99.90
802;DHT22;383;48.766;9.270;2022-11-15T03:51:58;7.70;99.90
802;DHT22;383;48.766;9.270;2022-11-15T03:54:25;7.70;99.90
802;DHT22;383;48.766;9.270;2022-11-15T03:56:54;7.70;99.90
802;DHT22;383;48.766;9.270;2022-11-15T03:59:21;7.80;99.90
802;DHT22;383;48.766;9.270;2022-11-15T04:01:48;7.90;99.90
802;DHT22;383;48.766;9.270;2022-11-15T04:04:15;7.90;99.90
802;DHT22;383;48.766;9.270;2022-11-15T04:06:43;7.80;99.90
802;DHT22;383;48.766;9.270;2022-11-15T04:09:09;7.80;99.90
802;DHT22;383;48.766;9.270;2022-11-15T04:11:36;7.80;99.90
802;DHT22;383;48.766;9.270;2022-11-15T04:14:03;7.80;99.90
802;DHT22;383;48.766;9.270;2022-11-15T04:16:30;7.80;99.90
802;DHT22;383;48.766;9.270;2022-11-15T04:18:57;7.80;99.90
802;DHT22;383;48.766;9.270;2022-11-15T04:21:42;7.80;99.90
802;DHT22;383;48.766;9.270;2022-11-15T04:24:27;7.80;99.90
802;DHT22;383;48.766;9.270;2022-11-15T04:26:53;7.80;99.90
802;DHT22;383;48.766;9.270;2022-11-15T04:29:20;7.80;99.90
802;DHT22;383;48.766;9.270;2022-11-15T04:32:06;7.70;99.90
802;DHT22;383;48.766;9.270;2022-11-15T04:34:33;7.60;99.90
802;DHT22;383;48.766;9.270;2022-11-15T04:37:02;7.70;99.90
802;DHT22;383;48.766;9.270;2022-11-15T04:39:42;7.80;99.90
802;DHT22;383;48.766;9.270;2022-11-15T04:42:10;7.70;99.90
802;DHT22;383;48.766;9.270;2022-11-15T04:44:37;7.60;99.90
802;DHT22;383;48.766;9.270;2022-11-15T04:47:05;7.70;99.90
802;DHT22;383;48.766;9.270;2022-11-15T04:49:32;7.60;99.90
802;DHT22;383;48.766;9.270;2022-11-15T04:51:59;7.70;99.90
802;DHT22;383;48.766;9.270;2022-11-15T04:54:27;7.70;99.80
802;DHT22;383;48.766;9.270;2022-11-15T04:56:54;7.60;99.90
802;DHT22;383;48.766;9.270;2022-11-15T04:59:21;7.50;99.90
802;DHT22;383;48.766;9.270;2022-11-15T05:01:47;7.50;99.90
802;DHT22;383;48.766;9.270;2022-11-15T05:04:14;7.60;99.90
802;DHT22;383;48.766;9.270;2022-11-15T05:06:50;7.60;99.90
802;DHT22;383;48.766;9.270;2022-11-15T05:09:19;7.60;99.90
802;DHT22;383;48.766;9.270;2022-11-15T05:11:47;7.60;99.90
802;DHT22;383;48.766;9.270;2022-11-15T05:14:14;7.50;99.90
802;DHT22;383;48.766;9.270;2022-11-15T05:16:41;7.50;99.90
802;DHT22;383;48.766;9.270;2022-11-15T05:19:09;7.50;99.90
802;DHT22;383;48.766;9.270;2022-11-15T05:21:36;7.50;99.90
802;DHT22;383;48.766;9.270;2022-11-15T05:24:04;7.60;99.90
802;DHT22;383;48.766;9.270;2022-11-15T05:26:31;7.60;99.90
802;DHT22;383;48.766;9.270;2022-11-15T05:28:59;7.50;99.90
802;DHT22;383;48.766;9.270;2022-11-15T05:31:26;7.50;99.90
802;DHT22;383;48.766;9.270;2022-11-15T05:33:54;7.50;99.90
802;DHT22;383;48.766;9.270;2022-11-15T05:36:27;7.50;99.90
802;DHT22;383;48.766;9.270;2022-11-15T05:38:55;7.40;99.90
802;DHT22;383;48.766;9.270;2022-11-15T05:41:27;7.40;99.90
802;DHT22;383;48.766;9.270;2022-11-15T05:43:55;7.40;99.90
802;DHT22;383;48.766;9.270;2022-11-15T05:46:24;7.40;99.90
802;DHT22;383;48.766;9.270;2022-11-15T05:48:52;7.30;99.90
802;DHT22;383;48.766;9.270;2022-11-15T05:51:23;7.30;99.90
802;DHT22;383;48.766;9.270;2022-11-15T05:53:51;7.30;99.90
802;DHT22;383;48.766;9.270;2022-11-15T05:56:18;7.20;99.90
802;DHT22;383;48.766;9.270;2022-11-15T05:58:45;7.20;99.90
802;DHT22;383;48.766;9.270;2022-11-15T06:01:12;7.20;99.90
802;DHT22;383;48.766;9.270;2022-11-15T06:03:41;7.20;99.90
802;DHT22;383;48.766;9.270;2022-11-15T06:06:08;7.30;99.90
802;DHT22;383;48.766;9.270;2022-11-15T06:08:34;7.30;99.90
802;DHT22;383;48.766;9.270;2022-11-15T06:11:05;7.20;99.90
802;DHT22;383;48.766;9.270;2022-11-15T06:13:32;7.20;99.90
802;DHT22;383;48.766;9.270;2022-11-15T06:15:58;7.30;99.90
802;DHT22;383;48.766;9.270;2022-11-15T06:18:26;7.30;99.90
802;DHT22;383;48.766;9.270;2022-11-15T06:20:58;7.30;99.90
802;DHT22;383;48.766;9.270;2022-11-15T06:23:25;7.30;99.90
802;DHT22;383;48.766;9.270;2022-11-15T06:25:52;7.20;99.90
802;DHT22;383;48.766;9.270;2022-11-15T06:28:21;7.30;99.90
802;DHT22;383;48.766;9.270;2022-11-15T06:30:49;7.30;99.90
802;DHT22;383;48.766;9.270;2022-11-15T06:33:16;7.30;99.90
802;DHT22;383;48.766;9.270;2022-11-15T06:35:43;7.40;99.90
802;DHT22;383;48.766;9.270;2022-11-15T06:38:11;7.40;99.90
802;DHT22;383;48.766;9.270;2022-11-15T06:40:39;7.40;99.90
802;DHT22;383;48.766;9.270;2022-11-15T06:43:06;7.40;99.90
802;DHT22;383;48.766;9.270;2022-11-15T06:45:33;7.40;99.90
802;DHT22;383;48.766;9.270;2022-11-15T06:47:59;7.40;99.90
802;DHT22;383;48.766;9.270;2022-11-15T06:50:26;7.40;99.90
802;DHT22;383;48.766;9.270;2022-11-15T06:52:53;7.50;99.90
802;DHT22;383;48.766;9.270;2022-11-15T06:55:21;7.50;99.90
802;DHT22;383;48.766;9.270;2022-11-15T06:57:49;7.50;99.90
802;DHT22;383;48.766;9.270;2022-11-15T07:00:17;7.50;99.90
802;DHT22;383;48.766;9.270;2022-11-15T07:02:44;7.50;99.90
802;DHT22;383;48.766;9.270;2022-11-15T07:05:11;7.50;99.90
802;DHT22;383;48.766;9.270;2022-11-15T07:07:38;7.60;99.90
802;DHT22;383;48.766;9.270;2022-11-15T07:10:06;7.50;99.90
802;DHT22;383;48.766;9.270;2022-11-15T07:12:35;7.50;99.90
802;DHT22;383;48.766;9.270;2022-11-15T07:15:04;7.50;99.90
802;DHT22;383;48.766;9.270;2022-11-15T07:17:31;7.50;99.90
802;DHT22;383;48.766;9.270;2022-11-15T07:19:58;7.70;99.90
802;DHT22;383;48.766;9.270;2022-11-15T07:22:24;7.70;99.90
802;DHT22;383;48.766;9.270;2022-11-15T07:24:51;7.70;99.90
802;DHT22;383;48.766;9.270;2022-11-15T07:27:18;7.80;99.90
802;DHT22;383;48.766;9.270;2022-11-15T07:29:48;7.80;99.90
802;DHT22;383;48.766;9.270;2022-11-15T07:32:15;7.90;99.90
802;DHT22;383;48.766;9.270;2022-11-15T07:34:42;8.00;99.90
802;DHT22;383;48.766;9.270;2022-11-15T07:37:08;8.00;99.80
802;DHT22;383;48.766;9.270;2022-11-15T07:39:35;8.10;99.50
802;DHT22;383;48.766;9.270;2022-11-15T07:42:02;8.20;99.90
802;DHT22;383;48.766;9.270;2022-11-15T07:44:47;8.30;99.80
802;DHT22;383;48.766;9.270;2022-11-15T07:47:14;8.40;99.50
802;DHT22;383;48.766;9.270;2022-11-15T07:49:41;8.50;99.70
802;DHT22;383;48.766;9.270;2022-11-15T07:52:07;8.60;99.30
802;DHT22;383;48.766;9.270;2022-11-15T07:54:34;8.70;99.20
802;DHT22;383;48.766;9.270;2022-11-15T07:57:01;8.80;99.20
802;DHT22;383;48.766;9.270;2022-11-15T07:59:28;8.90;99.10
802;DHT22;383;48.766;9.270;2022-11-15T08:01:56;9.10;98.60
802;DHT22;383;48.766;9.270;2022-11-15T08:04:23;9.30;98.10
802;DHT22;383;48.766;9.270;2022-11-15T08:06:50;9.50;97.30
802;DHT22;383;48.766;9.270;2022-11-15T08:09:16;9.70;96.20
802;DHT22;383;48.766;9.270;2022-11-15T08:11:43;9.80;96.30
802;DHT22;383;48.766;9.270;2022-11-15T08:14:10;10.00;96.30
802;DHT22;383;48.766;9.270;2022-11-15T08:16:37;10.10;95.20
802;DHT22;383;48.766;9.270;2022-11-15T08:19:05;10.20;94.50
802;DHT22;383;48.766;9.270;2022-11-15T08:21:32;10.30;94.80
802;DHT22;383;48.766;9.270;2022-11-15T08:23:58;10.40;93.80
802;DHT22;383;48.766;9.270;2022-11-15T08:26:26;10.50;93.70
802;DHT22;383;48.766;9.270;2022-11-15T08:28:55;10.50;93.20
802;DHT22;383;48.766;9.270;2022-11-15T08:31:22;10.60;93.30
802;DHT22;383;48.766;9.270;2022-11-15T08:33:48;10.70;93.00
802;DHT22;383;48.766;9.270;2022-11-15T08:36:17;10.70;92.40
802;DHT22;383;48.766;9.270;2022-11-15T08:38:44;10.70;92.40
802;DHT22;383;48.766;9.270;2022-11-15T08:41:23;10.60;92.40
802;DHT22;383;48.766;9.270;2022-11-15T08:43:51;10.60;93.00
802;DHT22;383;48.766;9.270;2022-11-15T08:46:18;10.60;92.80
802;DHT22;383;48.766;9.270;2022-11-15T08:48:44;10.60;92.60
802;DHT22;383;48.766;9.270;2022-11-15T08:51:12;10.60;92.90
802;DHT22;383;48.766;9.270;2022-11-15T08:53:41;10.60;93.20
802;DHT22;383;48.766;9.270;2022-11-15T08:56:08;10.60;93.40
802;DHT22;383;48.766;9.270;2022-11-15T08:58:35;10.70;93.30
802;DHT22;383;48.766;9.270;2022-11-15T09:01:02;10.80;93.40
802;DHT22;383;48.766;9.270;2022-11-15T09:03:29;10.90;93.60
802;DHT22;383;48.766;9.270;2022-11-15T09:05:56;11.10;92.60
802;DHT22;383;48.766;9.270;2022-11-15T09:08:23;11.20;91.90
802;DHT22;383;48.766;9.270;2022-11-15T09:10:51;11.40;91.60
802;DHT22;383;48.766;9.270;2022-11-15T09:13:18;11.40;91.70
802;DHT22;383;48.766;9.270;2022-11-15T09:15:45;11.60;91.30
802;DHT22;383;48.766;9.270;2022-11-15T09:18:12;11.80;91.30
802;DHT22;383;48.766;9.270;2022-11-15T09:20:39;11.90;90.40
802;DHT22;383;48.766;9.270;2022-11-15T09:23:05;12.10;89.20
802;DHT22;383;48.766;9.270;2022-11-15T09:25:32;12.20;89.40
802;DHT22;383;48.766;9.270;2022-11-15T09:28:00;12.30;89.00
802;DHT22;383;48.766;9.270;2022-11-15T09:30:31;12.40;88.50
802;DHT22;383;48.766;9.270;2022-11-15T09:32:58;12.40;88.50
802;DHT22;383;48.766;9.270;2022-11-15T09:35:25;12.50;88.50
802;DHT22;383;48.766;9.270;2022-11-15T09:37:52;12.60;88.20
802;DHT22;383;48.766;9.270;2022-11-15T09:40:19;12.80;86.70
802;DHT22;383;48.766;9.270;2022-11-15T09:43:01;12.90;86.00
802;DHT22;383;48.766;9.270;2022-11-15T09:45:34;13.00;85.10
802;DHT22;383;48.766;9.270;2022-11-15T09:48:27;13.20;84.10
802;DHT22;383;48.766;9.270;2022-11-15T09:50:56;13.20;84.00
802;DHT22;383;48.766;9.270;2022-11-15T09:53:29;13.30;83.70
802;DHT22;383;48.766;9.270;2022-11-15T09:56:00;13.30;82.40
802;DHT22;383;48.766;9.270;2022-11-15T09:58:34;13.30;82.70
802;DHT22;383;48.766;9.270;2022-11-15T10:01:06;13.40;84.10
802;DHT22;383;48.766;9.270;2022-11-15T10:03:37;13.40;84.00
802;DHT22;383;48.766;9.270;2022-11-15T10:06:13;13.40;84.00
802;DHT22;383;48.766;9.270;2022-11-15T10:08:55;13.50;83.90
802;DHT22;383;48.766;9.270;2022-11-15T10:11:27;13.70;82.30
802;DHT22;383;48.766;9.270;2022-11-15T10:13:59;13.70;82.30
802;DHT22;383;48.766;9.270;2022-11-15T10:19:35;13.90;82.30
802;DHT22;383;48.766;9.270;2022-11-15T10:22:23;14.10;82.20
802;DHT22;383;48.766;9.270;2022-11-15T10:24:57;14.30;81.50
802;DHT22;383;48.766;9.270;2022-11-15T10:27:25;14.40;80.40
802;DHT22;383;48.766;9.270;2022-11-15T10:29:55;14.60;79.50
802;DHT22;383;48.766;9.270;2022-11-15T10:32:24;14.70;79.40
802;DHT22;383;48.766;9.270;2022-11-15T10:34:51;15.00;76.60
802;DHT22;383;48.766;9.270;2022-11-15T10:37:28;15.00;76.90
802;DHT22;383;48.766;9.270;2022-11-15T10:40:03;15.10;77.90
802;DHT22;383;48.766;9.270;2022-11-15T10:42:31;15.30;76.50
802;DHT22;383;48.766;9.270;2022-11-15T10:44:59;15.30;76.10
802;DHT22;383;48.766;9.270;2022-11-15T10:50:05;15.50;74.10
802;DHT22;383;48.766;9.270;2022-11-15T10:52:34;15.50;74.40
802;DHT22;383;48.766;9.270;2022-11-15T10:55:17;15.50;74.40
802;DHT22;383;48.766;9.270;2022-11-15T10:57:50;15.50;74.40
802;DHT22;383;48.766;9.270;2022-11-15T11:00:36;15.60;74.00
802;DHT22;383;48.766;9.270;2022-11-15T11:03:06;15.60;75.00
802;DHT22;383;48.766;9.270;2022-11-15T11:05:45;15.60;74.50
802;DHT22;383;48.766;9.270;2022-11-15T11:08:23;15.70;74.40
802;DHT22;383;48.766;9.270;2022-11-15T11:10:55;15.70;75.00
802;DHT22;383;48.766;9.270;2022-11-15T11:13:23;15.80;74.40
802;DHT22;383;48.766;9.270;2022-11-15T11:15:58;15.80;72.80
802;DHT22;383;48.766;9.270;2022-11-15T11:18:29;15.80;72.90
802;DHT22;383;48.766;9.270;2022-11-15T11:21:02;15.80;72.80
802;DHT22;383;48.766;9.270;2022-11-15T11:23:39;15.70;73.40
802;DHT22;383;48.766;9.270;2022-11-15T11:26:18;15.70;74.10
802;DHT22;383;48.766;9.270;2022-11-15T11:28:59;15.70;74.60
802;DHT22;383;48.766;9.270;2022-11-15T11:31:36;15.80;75.20
802;DHT22;383;48.766;9.270;2022-11-15T11:34:15;15.80;74.80
802;DHT22;383;48.766;9.270;2022-11-15T11:36:54;15.90;74.80
802;DHT22;383;48.766;9.270;2022-11-15T11:39:31;16.00;74.10
802;DHT22;383;48.766;9.270;2022-11-15T11:42:09;16.10;73.70
802;DHT22;383;48.766;9.270;2022-11-15T11:44:45;16.20;72.60
802;DHT22;383;48.766;9.270;2022-11-15T11:47:21;16.20;72.50
802;DHT22;383;48.766;9.270;2022-11-15T11:49:51;16.20;72.80
802;DHT22;383;48.766;9.270;2022-11-15T11:52:22;16.20;72.40
802;DHT22;383;48.766;9.270;2022-11-15T11:54:58;16.20;71.90
802;DHT22;383;48.766;9.270;2022-11-15T11:57:42;16.20;71.60
802;DHT22;383;48.766;9.270;2022-11-15T12:00:17;16.30;73.00
802;DHT22;383;48.766;9.270;2022-11-15T12:03:01;16.30;73.30
802;DHT22;383;48.766;9.270;2022-11-15T12:05:33;16.30;73.20
802;DHT22;383;48.766;9.270;2022-11-15T12:08:09;16.30;72.80
802;DHT22;383;48.766;9.270;2022-11-15T12:10:40;16.30;72.90
802;DHT22;383;48.766;9.270;2022-11-15T12:13:15;16.40;74.00
802;DHT22;383;48.766;9.270;2022-11-15T12:15:47;16.40;73.80
802;DHT22;383;48.766;9.270;2022-11-15T12:18:19;16.50;73.30
802;DHT22;383;48.766;9.270;2022-11-15T12:20:52;16.60;73.70
802;DHT22;383;48.766;9.270;2022-11-15T12:23:24;16.60;72.90
802;DHT22;383;48.766;9.270;2022-11-15T12:26:07;16.60;71.70
802;DHT22;383;48.766;9.270;2022-11-15T12:32:10;16.60;72.30
802;DHT22;383;48.766;9.270;2022-11-15T12:35:39;16.50;72.30
802;DHT22;383;48.766;9.270;2022-11-15T12:38:54;16.40;72.90
802;DHT22;383;48.766;9.270;2022-11-15T12:41:37;16.40;73.20
802;DHT22;383;48.766;9.270;2022-11-15T12:44:10;16.40;73.60
802;DHT22;383;48.766;9.270;2022-11-15T12:47:00;16.40;73.60
802;DHT22;383;48.766;9.270;2022-11-15T12:49:47;16.40;74.00
802;DHT22;383;48.766;9.270;2022-11-15T12:52:16;16.40;73.30
802;DHT22;383;48.766;9.270;2022-11-15T12:55:00;16.30;73.80
802;DHT22;383;48.766;9.270;2022-11-15T12:57:41;16.30;73.60
802;DHT22;383;48.766;9.270;2022-11-15T13:00:36;16.30;73.40
802;DHT22;383;48.766;9.270;2022-11-15T13:03:24;16.30;73.60
802;DHT22;383;48.766;9.270;2022-11-15T13:05:59;16.30;73.70
802;DHT22;383;48.766;9.270;2022-11-15T13:08:46;16.30;74.40
802;DHT22;383;48.766;9.270;2022-11-15T13:11:41;16.20;73.80
802;DHT22;383;48.766;9.270;2022-11-15T13:14:39;16.10;73.80
802;DHT22;383;48.766;9.270;2022-11-15T13:17:34;16.00;76.00
802;DHT22;383;48.766;9.270;2022-11-15T13:20:25;15.90;75.40
802;DHT22;383;48.766;9.270;2022-11-15T13:22:59;15.90;76.20
802;DHT22;383;48.766;9.270;2022-11-15T13:26:02;15.90;76.00
802;DHT22;383;48.766;9.270;2022-11-15T13:28:34;15.80;76.30
802;DHT22;383;48.766;9.270;2022-11-15T13:31:27;15.80;75.70
802;DHT22;383;48.766;9.270;2022-11-15T13:33:58;15.70;76.10
802;DHT22;383;48.766;9.270;2022-11-15T13:36:27;15.60;76.10
802;DHT22;383;48.766;9.270;2022-11-15T13:38:57;15.60;76.90
802;DHT22;383;48.766;9.270;2022-11-15T13:41:27;15.60;77.30
802;DHT22;383;48.766;9.270;2022-11-15T13:43:57;15.60;77.30
802;DHT22;383;48.766;9.270;2022-11-15T13:46:26;15.60;76.30
802;DHT22;383;48.766;9.270;2022-11-15T13:48:56;15.50;76.70
802;DHT22;383;48.766;9.270;2022-11-15T13:51:33;15.50;76.60
802;DHT22;383;48.766;9.270;2022-11-15T13:54:03;15.50;77.00
802;DHT22;383;48.766;9.270;2022-11-15T13:56:36;15.50;77.50
802;DHT22;383;48.766;9.270;2022-11-15T13:59:09;15.60;77.40
802;DHT22;383;48.766;9.270;2022-11-15T14:01:36;15.60;76.60
802;DHT22;383;48.766;9.270;2022-11-15T14:04:04;15.50;77.30
802;DHT22;383;48.766;9.270;2022-11-15T14:06:31;15.50;77.70
802;DHT22;383;48.766;9.270;2022-11-15T14:09:24;15.50;77.00
802;DHT22;383;48.766;9.270;2022-11-15T14:11:55;15.40;76.10
802;DHT22;383;48.766;9.270;2022-11-15T14:14:22;15.30;76.50
802;DHT22;383;48.766;9.270;2022-11-15T14:16:51;15.30;76.50
802;DHT22;383;48.766;9.270;2022-11-15T14:19:36;15.30;76.60
802;DHT22;383;48.766;9.270;2022-11-15T14:22:15;15.20;77.90
802;DHT22;383;48.766;9.270;2022-11-15T14:24:43;15.10;79.50
802;DHT22;383;48.766;9.270;2022-11-15T14:27:33;14.90;81.10
802;DHT22;383;48.766;9.270;2022-11-15T14:30:00;14.90;83.10
802;DHT22;383;48.766;9.270;2022-11-15T14:32:28;14.80;83.70
802;DHT22;383;48.766;9.270;2022-11-15T14:34:56;14.70;85.60
802;DHT22;383;48.766;9.270;2022-11-15T14:37:25;14.70;85.50
802;DHT22;383;48.766;9.270;2022-11-15T14:39:52;14.60;87.70
802;DHT22;383;48.766;9.270;2022-11-15T14:42:21;14.60;88.80
802;DHT22;383;48.766;9.270;2022-11-15T14:44:49;14.60;89.00
802;DHT22;383;48.766;9.270;2022-11-15T14:47:17;14.50;89.00
802;DHT22;383;48.766;9.270;2022-11-15T14:49:44;14.40;89.20
802;DHT22;383;48.766;9.270;2022-11-15T14:52:23;14.40;88.20
802;DHT22;383;48.766;9.270;2022-11-15T14:54:50;14.30;88.60
802;DHT22;383;48.766;9.270;2022-11-15T14:57:17;14.10;90.10
802;DHT22;383;48.766;9.270;2022-11-15T14:59:45;14.10;90.20
802;DHT22;383;48.766;9.270;2022-11-15T15:02:20;14.10;90.40
802;DHT22;383;48.766;9.270;2022-11-15T15:04:48;14.10;90.70
802;DHT22;383;48.766;9.270;2022-11-15T15:07:15;14.10;91.20
802;DHT22;383;48.766;9.270;2022-11-15T15:09:42;14.00;91.70
802;DHT22;383;48.766;9.270;2022-11-15T15:12:16;14.00;91.70
802;DHT22;383;48.766;9.270;2022-11-15T15:14:44;14.00;91.30
802;DHT22;383;48.766;9.270;2022-11-15T15:17:11;14.00;91.20
802;DHT22;383;48.766;9.270;2022-11-15T15:19:39;14.00;90.90
802;DHT22;383;48.766;9.270;2022-11-15T15:22:11;13.90;91.60
802;DHT22;383;48.766;9.270;2022-11-15T15:24:40;13.80;91.60
802;DHT22;383;48.766;9.270;2022-11-15T15:27:07;13.80;91.60
802;DHT22;383;48.766;9.270;2022-11-15T15:29:34;13.80;91.90
802;DHT22;383;48.766;9.270;2022-11-15T15:32:00;13.80;91.60
802;DHT22;383;48.766;9.270;2022-11-15T15:34:27;13.80;91.40
802;DHT22;383;48.766;9.270;2022-11-15T15:37:08;13.80;91.70
802;DHT22;383;48.766;9.270;2022-11-15T15:39:35;13.70;91.90
802;DHT22;383;48.766;9.270;2022-11-15T15:42:02;13.60;91.00
802;DHT22;383;48.766;9.270;2022-11-15T15:44:30;13.50;90.90
802;DHT22;383;48.766;9.270;2022-11-15T15:46:57;13.40;92.70
802;DHT22;383;48.766;9.270;2022-11-15T15:49:24;13.40;93.20
802;DHT22;383;48.766;9.270;2022-11-15T15:51:53;13.40;92.90
802;DHT22;383;48.766;9.270;2022-11-15T15:54:21;13.30;92.50
802;DHT22;383;48.766;9.270;2022-11-15T15:56:48;13.20;92.70
802;DHT22;383;48.766;9.270;2022-11-15T15:59:18;13.20;92.90
802;DHT22;383;48.766;9.270;2022-11-15T16:01:45;13.10;93.40
802;DHT22;383;48.766;9.270;2022-11-15T16:04:12;13.10;93.50
802;DHT22;383;48.766;9.270;2022-11-15T16:06:40;13.10;94.20
802;DHT22;383;48.766;9.270;2022-11-15T16:09:12;13.10;93.30
802;DHT22;383;48.766;9.270;2022-11-15T16:11:41;13.00;93.20
802;DHT22;383;48.766;9.270;2022-11-15T16:14:08;13.00;93.30
802;DHT22;383;48.766;9.270;2022-11-15T16:16:35;13.00;93.60
802;DHT22;383;48.766;9.270;2022-11-15T16:19:03;13.00;93.30
802;DHT22;383;48.766;9.270;2022-11-15T16:21:30;13.00;93.00
802;DHT22;383;48.766;9.270;2022-11-15T16:23:57;13.00;93.10
802;DHT22;383;48.766;9.270;2022-11-15T16:26:26;13.00;93.40
802;DHT22;383;48.766;9.270;2022-11-15T16:28:55;13.00;93.20
802;DHT22;383;48.766;9.270;2022-11-15T16:31:22;13.00;93.60
802;DHT22;383;48.766;9.270;2022-11-15T16:33:49;13.00;93.40
802;DHT22;383;48.766;9.270;2022-11-15T16:36:20;13.00;93.40
802;DHT22;383;48.766;9.270;2022-11-15T16:38:47;13.00;93.00
802;DHT22;383;48.766;9.270;2022-11-15T16:41:14;12.90;92.60
802;DHT22;383;48.766;9.270;2022-11-15T16:43:44;12.90;92.70
802;DHT22;383;48.766;9.270;2022-11-15T16:46:16;12.90;91.90
802;DHT22;383;48.766;9.270;2022-11-15T16:48:44;12.80;92.40
802;DHT22;383;48.766;9.270;2022-11-15T16:51:11;12.80;92.70
802;DHT22;383;48.766;9.270;2022-11-15T16:53:38;12.90;92.60
802;DHT22;383;48.766;9.270;2022-11-15T16:56:15;12.90;92.50
802;DHT22;383;48.766;9.270;2022-11-15T16:58:43;12.90;92.20
802;DHT22;383;48.766;9.270;2022-11-15T17:01:18;13.00;91.90
802;DHT22;383;48.766;9.270;2022-11-15T17:03:45;13.00;92.30
802;DHT22;383;48.766;9.270;2022-11-15T17:06:13;13.00;92.00
802;DHT22;383;48.766;9.270;2022-11-15T17:08:42;13.10;91.90
802;DHT22;383;48.766;9.270;2022-11-15T17:11:10;13.10;91.60
802;DHT22;383;48.766;9.270;2022-11-15T17:13:40;13.10;91.10
802;DHT22;383;48.766;9.270;2022-11-15T17:16:08;13.20;91.50